sensor_id;sensor_type;location;lat;lon;timestamp;P1;durP1;ratioP1;P2;durP2;ratioP2
75552;SDS011;64136;53.118;17.996;2022-10-16T00:01:08;21.30;;;14.20;;
75552;SDS011;64136;53.118;17.996;2022-10-16T00:03:38;24.70;;;15.80;;
75552;SDS011;64136;53.118;17.996;2022-10-16T00:06:06;23.00;;;14.00;;
75552;SDS011;64136;53.118;17.996;2022-10-16T00:08:33;21.20;;;14.60;;
75552;SDS011;64136;53.118;17.996;2022-10-16T00:11:01;23.70;;;14.30;;
75552;SDS011;64136;53.118;17.996;2022-10-16T00:13:32;30.20;;;16.70;;
75552;SDS011;64136;53.118;17.996;2022-10-16T00:16:00;20.00;;;13.90;;
75552;SDS011;64136;53.118;17.996;2022-10-16T00:18:28;25.60;;;15.90;;
75552;SDS011;64136;53.118;17.996;2022-10-16T00:20:55;34.00;;;18.70;;
75552;SDS011;64136;53.118;17.996;2022-10-16T00:23:21;21.50;;;13.60;;
75552;SDS011;64136;53.118;17.996;2022-10-16T00:25:54;20.80;;;12.90;;
75552;SDS011;64136;53.118;17.996;2022-10-16T00:28:24;21.90;;;13.50;;
75552;SDS011;64136;53.118;17.996;2022-10-16T00:30:51;21.10;;;13.20;;
75552;SDS011;64136;53.118;17.996;2022-10-16T00:33:18;20.20;;;12.20;;
75552;SDS011;64136;53.118;17.996;2022-10-16T00:35:44;20.20;;;13.00;;
75552;SDS011;64136;53.118;17.996;2022-10-16T00:38:11;23.80;;;15.20;;
75552;SDS011;64136;53.118;17.996;2022-10-16T00:40:37;26.70;;;13.70;;
75552;SDS011;64136;53.118;17.996;2022-10-16T00:43:09;23.40;;;14.20;;
75552;SDS011;64136;53.118;17.996;2022-10-16T00:45:39;20.90;;;13.20;;
75552;SDS011;64136;53.118;17.996;2022-10-16T00:48:06;20.40;;;12.40;;
75552;SDS011;64136;53.118;17.996;2022-10-16T00:50:37;24.70;;;14.00;;
75552;SDS011;64136;53.118;17.996;2022-10-16T00:53:04;25.60;;;15.00;;
75552;SDS011;64136;53.118;17.996;2022-10-16T00:55:31;21.50;;;14.20;;
75552;SDS011;64136;53.118;17.996;2022-10-16T00:57:57;23.50;;;14.30;;
75552;SDS011;64136;53.118;17.996;2022-10-16T01:00:26;22.80;;;12.50;;
75552;SDS011;64136;53.118;17.996;2022-10-16T01:02:57;20.50;;;12.70;;
75552;SDS011;64136;53.118;17.996;2022-10-16T01:05:28;22.10;;;12.70;;
75552;SDS011;64136;53.118;17.996;2022-10-16T01:08:01;24.30;;;14.50;;
75552;SDS011;64136;53.118;17.996;2022-10-16T01:13:34;20.30;;;13.60;;
75552;SDS011;64136;53.118;17.996;2022-10-16T01:16:06;24.80;;;14.70;;
75552;SDS011;64136;53.118;17.996;2022-10-16T01:18:46;21.30;;;11.70;;
75552;SDS011;64136;53.118;17.996;2022-10-16T01:21:27;22.90;;;14.40;;
75552;SDS011;64136;53.118;17.996;2022-10-16T01:29:34;22.60;;;13.80;;
75552;SDS011;64136;53.118;17.996;2022-10-16T01:33:01;23.60;;;13.80;;
75552;SDS011;64136;53.118;17.996;2022-10-16T01:35:23;21.30;;;14.00;;
75552;SDS011;64136;53.118;17.996;2022-10-16T01:40:20;19.70;;;12.60;;
75552;SDS011;64136;53.118;17.996;2022-10-16T01:42:52;19.90;;;13.00;;
75552;SDS011;64136;53.118;17.996;2022-10-16T01:45:21;19.20;;;11.80;;
75552;SDS011;64136;53.118;17.996;2022-10-16T01:47:48;21.90;;;13.70;;
75552;SDS011;64136;53.118;17.996;2022-10-16T01:50:16;22.50;;;14.90;;
75552;SDS011;64136;53.118;17.996;2022-10-16T01:52:45;19.40;;;13.40;;
75552;SDS011;64136;53.118;17.996;2022-10-16T01:55:17;23.60;;;13.80;;
75552;SDS011;64136;53.118;17.996;2022-10-16T01:57:46;19.20;;;11.90;;
75552;SDS011;64136;53.118;17.996;2022-10-16T02:00:14;17.30;;;10.70;;
75552;SDS011;64136;53.118;17.996;2022-10-16T02:02:44;21.60;;;12.20;;
75552;SDS011;64136;53.118;17.996;2022-10-16T02:05:56;21.20;;;13.50;;
75552;SDS011;64136;53.118;17.996;2022-10-16T02:08:05;20.70;;;12.90;;
75552;SDS011;64136;53.118;17.996;2022-10-16T02:10:31;19.80;;;13.70;;
75552;SDS011;64136;53.118;17.996;2022-10-16T02:15:37;21.40;;;12.80;;
75552;SDS011;64136;53.118;17.996;2022-10-16T02:18:04;19.00;;;12.90;;
75552;SDS011;64136;53.118;17.996;2022-10-16T02:20:37;24.00;;;13.60;;
75552;SDS011;64136;53.118;17.996;2022-10-16T02:23:28;18.00;;;12.00;;
75552;SDS011;64136;53.118;17.996;2022-10-16T02:26:03;21.10;;;14.50;;
75552;SDS011;64136;53.118;17.996;2022-10-16T02:28:35;19.50;;;13.30;;
75552;SDS011;64136;53.118;17.996;2022-10-16T02:31:16;18.00;;;12.60;;
75552;SDS011;64136;53.118;17.996;2022-10-16T02:33:44;19.50;;;13.20;;
75552;SDS011;64136;53.118;17.996;2022-10-16T02:36:12;23.40;;;13.10;;
75552;SDS011;64136;53.118;17.996;2022-10-16T02:38:39;21.10;;;11.70;;
75552;SDS011;64136;53.118;17.996;2022-10-16T02:41:06;20.90;;;13.20;;
75552;SDS011;64136;53.118;17.996;2022-10-16T02:43:33;25.50;;;14.90;;
75552;SDS011;64136;53.118;17.996;2022-10-16T02:46:00;20.40;;;12.50;;
75552;SDS011;64136;53.118;17.996;2022-10-16T02:48:26;20.60;;;13.00;;
75552;SDS011;64136;53.118;17.996;2022-10-16T02:50:53;23.10;;;15.00;;
75552;SDS011;64136;53.118;17.996;2022-10-16T02:53:19;20.40;;;13.50;;
75552;SDS011;64136;53.118;17.996;2022-10-16T02:55:46;27.00;;;16.50;;
75552;SDS011;64136;53.118;17.996;2022-10-16T02:58:12;23.90;;;14.40;;
75552;SDS011;64136;53.118;17.996;2022-10-16T03:00:39;22.10;;;13.20;;
75552;SDS011;64136;53.118;17.996;2022-10-16T03:03:06;20.70;;;12.40;;
75552;SDS011;64136;53.118;17.996;2022-10-16T03:05:32;22.10;;;13.40;;
75552;SDS011;64136;53.118;17.996;2022-10-16T03:07:59;17.00;;;9.50;;
75552;SDS011;64136;53.118;17.996;2022-10-16T03:10:27;23.30;;;13.50;;
75552;SDS011;64136;53.118;17.996;2022-10-16T03:12:53;22.60;;;14.70;;
75552;SDS011;64136;53.118;17.996;2022-10-16T03:15:20;20.00;;;11.90;;
75552;SDS011;64136;53.118;17.996;2022-10-16T03:17:46;20.60;;;12.00;;
75552;SDS011;64136;53.118;17.996;2022-10-16T03:20:13;18.40;;;11.70;;
75552;SDS011;64136;53.118;17.996;2022-10-16T03:22:39;17.70;;;10.90;;
75552;SDS011;64136;53.118;17.996;2022-10-16T03:25:06;20.70;;;12.90;;
75552;SDS011;64136;53.118;17.996;2022-10-16T03:27:33;19.20;;;11.20;;
75552;SDS011;64136;53.118;17.996;2022-10-16T03:30:00;17.70;;;10.70;;
75552;SDS011;64136;53.118;17.996;2022-10-16T03:32:26;23.00;;;13.40;;
75552;SDS011;64136;53.118;17.996;2022-10-16T03:34:54;26.90;;;14.20;;
75552;SDS011;64136;53.118;17.996;2022-10-16T03:39:48;18.40;;;10.20;;
75552;SDS011;64136;53.118;17.996;2022-10-16T03:42:15;20.10;;;11.60;;
75552;SDS011;64136;53.118;17.996;2022-10-16T03:44:41;21.80;;;13.60;;
75552;SDS011;64136;53.118;17.996;2022-10-16T03:47:08;19.50;;;12.80;;
75552;SDS011;64136;53.118;17.996;2022-10-16T03:49:34;21.70;;;13.30;;
75552;SDS011;64136;53.118;17.996;2022-10-16T03:52:01;24.50;;;14.80;;
75552;SDS011;64136;53.118;17.996;2022-10-16T03:54:27;19.20;;;11.20;;
75552;SDS011;64136;53.118;17.996;2022-10-16T03:56:54;18.40;;;10.90;;
75552;SDS011;64136;53.118;17.996;2022-10-16T03:59:20;17.90;;;11.70;;
75552;SDS011;64136;53.118;17.996;2022-10-16T04:01:47;19.30;;;11.50;;
75552;SDS011;64136;53.118;17.996;2022-10-16T04:04:13;20.50;;;12.30;;
75552;SDS011;64136;53.118;17.996;2022-10-16T04:06:39;19.70;;;11.90;;
75552;SDS011;64136;53.118;17.996;2022-10-16T04:09:06;16.80;;;11.80;;
75552;SDS011;64136;53.118;17.996;2022-10-16T04:11:32;18.60;;;10.70;;
75552;SDS011;64136;53.118;17.996;2022-10-16T04:13:59;19.80;;;11.30;;
75552;SDS011;64136;53.118;17.996;2022-10-16T04:16:26;18.50;;;12.20;;
75552;SDS011;64136;53.118;17.996;2022-10-16T04:18:52;15.50;;;10.10;;
75552;SDS011;64136;53.118;17.996;2022-10-16T04:21:19;17.30;;;10.30;;
75552;SDS011;64136;53.118;17.996;2022-10-16T04:23:45;20.10;;;12.20;;
75552;SDS011;64136;53.118;17.996;2022-10-16T04:26:12;21.80;;;14.60;;
75552;SDS011;64136;53.118;17.996;2022-10-16T04:28:38;21.70;;;13.10;;
75552;SDS011;64136;53.118;17.996;2022-10-16T04:31:05;20.30;;;12.00;;
75552;SDS011;64136;53.118;17.996;2022-10-16T04:33:32;20.90;;;12.60;;
75552;SDS011;64136;53.118;17.996;2022-10-16T04:36:00;15.80;;;10.40;;
75552;SDS011;64136;53.118;17.996;2022-10-16T04:38:27;18.40;;;12.00;;
75552;SDS011;64136;53.118;17.996;2022-10-16T04:40:54;19.20;;;12.20;;
75552;SDS011;64136;53.118;17.996;2022-10-16T04:43:21;19.40;;;13.40;;
75552;SDS011;64136;53.118;17.996;2022-10-16T04:45:48;18.30;;;12.10;;
75552;SDS011;64136;53.118;17.996;2022-10-16T04:48:17;14.50;;;9.00;;
75552;SDS011;64136;53.118;17.996;2022-10-16T04:50:44;15.60;;;9.10;;
75552;SDS011;64136;53.118;17.996;2022-10-16T04:53:10;19.00;;;11.50;;
75552;SDS011;64136;53.118;17.996;2022-10-16T04:55:37;20.30;;;11.60;;
75552;SDS011;64136;53.118;17.996;2022-10-16T04:58:04;14.90;;;9.90;;
75552;SDS011;64136;53.118;17.996;2022-10-16T05:00:31;15.80;;;11.40;;
75552;SDS011;64136;53.118;17.996;2022-10-16T05:02:57;15.70;;;11.10;;
75552;SDS011;64136;53.118;17.996;2022-10-16T05:05:25;21.60;;;12.50;;
75552;SDS011;64136;53.118;17.996;2022-10-16T05:07:52;19.00;;;11.60;;
75552;SDS011;64136;53.118;17.996;2022-10-16T05:10:19;18.80;;;12.30;;
75552;SDS011;64136;53.118;17.996;2022-10-16T05:12:46;18.50;;;11.40;;
75552;SDS011;64136;53.118;17.996;2022-10-16T05:15:12;18.70;;;11.10;;
75552;SDS011;64136;53.118;17.996;2022-10-16T05:17:38;17.90;;;10.70;;
75552;SDS011;64136;53.118;17.996;2022-10-16T05:20:05;21.80;;;12.80;;
75552;SDS011;64136;53.118;17.996;2022-10-16T05:22:32;16.90;;;11.90;;
75552;SDS011;64136;53.118;17.996;2022-10-16T05:24:59;17.70;;;11.90;;
75552;SDS011;64136;53.118;17.996;2022-10-16T05:27:25;18.80;;;12.00;;
75552;SDS011;64136;53.118;17.996;2022-10-16T05:29:52;13.80;;;10.00;;
75552;SDS011;64136;53.118;17.996;2022-10-16T05:32:18;11.00;;;7.20;;
75552;SDS011;64136;53.118;17.996;2022-10-16T05:34:45;16.90;;;10.80;;
75552;SDS011;64136;53.118;17.996;2022-10-16T05:37:11;17.40;;;11.80;;
75552;SDS011;64136;53.118;17.996;2022-10-16T05:39:38;14.90;;;10.30;;
75552;SDS011;64136;53.118;17.996;2022-10-16T05:42:05;16.90;;;10.00;;
75552;SDS011;64136;53.118;17.996;2022-10-16T05:44:32;14.20;;;9.00;;
75552;SDS011;64136;53.118;17.996;2022-10-16T05:46:58;17.20;;;10.40;;
75552;SDS011;64136;53.118;17.996;2022-10-16T05:49:25;16.70;;;10.20;;
75552;SDS011;64136;53.118;17.996;2022-10-16T05:51:51;15.70;;;10.90;;
75552;SDS011;64136;53.118;17.996;2022-10-16T05:54:18;15.00;;;10.30;;
75552;SDS011;64136;53.118;17.996;2022-10-16T05:56:44;16.50;;;10.40;;
75552;SDS011;64136;53.118;17.996;2022-10-16T05:59:11;14.90;;;10.20;;
75552;SDS011;64136;53.118;17.996;2022-10-16T06:01:37;16.70;;;11.70;;
75552;SDS011;64136;53.118;17.996;2022-10-16T06:04:04;16.90;;;11.30;;
75552;SDS011;64136;53.118;17.996;2022-10-16T06:06:30;14.00;;;9.40;;
75552;SDS011;64136;53.118;17.996;2022-10-16T06:08:57;14.30;;;9.60;;
75552;SDS011;64136;53.118;17.996;2022-10-16T06:11:24;17.00;;;10.70;;
75552;SDS011;64136;53.118;17.996;2022-10-16T06:13:53;15.30;;;9.20;;
75552;SDS011;64136;53.118;17.996;2022-10-16T06:16:23;13.90;;;9.10;;
75552;SDS011;64136;53.118;17.996;2022-10-16T06:21:18;12.20;;;8.20;;
75552;SDS011;64136;53.118;17.996;2022-10-16T06:23:48;13.40;;;7.80;;
75552;SDS011;64136;53.118;17.996;2022-10-16T06:26:17;11.40;;;8.50;;
75552;SDS011;64136;53.118;17.996;2022-10-16T06:28:46;13.90;;;8.90;;
75552;SDS011;64136;53.118;17.996;2022-10-16T06:31:13;12.60;;;8.70;;
75552;SDS011;64136;53.118;17.996;2022-10-16T06:33:40;12.70;;;9.20;;
75552;SDS011;64136;53.118;17.996;2022-10-16T06:36:08;13.20;;;10.00;;
75552;SDS011;64136;53.118;17.996;2022-10-16T06:38:37;11.80;;;7.80;;
75552;SDS011;64136;53.118;17.996;2022-10-16T06:41:04;13.00;;;9.20;;
75552;SDS011;64136;53.118;17.996;2022-10-16T06:43:32;14.90;;;10.10;;
75552;SDS011;64136;53.118;17.996;2022-10-16T06:45:59;13.20;;;8.80;;
75552;SDS011;64136;53.118;17.996;2022-10-16T06:48:27;10.70;;;8.40;;
75552;SDS011;64136;53.118;17.996;2022-10-16T06:51:04;9.60;;;7.10;;
75552;SDS011;64136;53.118;17.996;2022-10-16T06:53:32;12.80;;;8.00;;
75552;SDS011;64136;53.118;17.996;2022-10-16T06:56:13;11.60;;;8.70;;
75552;SDS011;64136;53.118;17.996;2022-10-16T06:58:41;9.30;;;6.70;;
75552;SDS011;64136;53.118;17.996;2022-10-16T07:01:08;11.40;;;7.80;;
75552;SDS011;64136;53.118;17.996;2022-10-16T07:03:36;13.40;;;9.90;;
75552;SDS011;64136;53.118;17.996;2022-10-16T07:06:05;10.20;;;7.10;;
75552;SDS011;64136;53.118;17.996;2022-10-16T07:08:33;11.10;;;7.60;;
75552;SDS011;64136;53.118;17.996;2022-10-16T07:11:02;10.40;;;7.10;;
75552;SDS011;64136;53.118;17.996;2022-10-16T07:13:34;10.80;;;8.10;;
75552;SDS011;64136;53.118;17.996;2022-10-16T07:16:07;14.50;;;9.70;;
75552;SDS011;64136;53.118;17.996;2022-10-16T07:18:39;11.10;;;8.00;;
75552;SDS011;64136;53.118;17.996;2022-10-16T07:21:07;12.20;;;7.80;;
75552;SDS011;64136;53.118;17.996;2022-10-16T07:23:37;11.40;;;7.70;;
75552;SDS011;64136;53.118;17.996;2022-10-16T07:26:05;11.20;;;7.30;;
75552;SDS011;64136;53.118;17.996;2022-10-16T07:28:32;11.50;;;8.50;;
75552;SDS011;64136;53.118;17.996;2022-10-16T07:31:00;9.00;;;7.80;;
75552;SDS011;64136;53.118;17.996;2022-10-16T07:33:28;11.70;;;8.30;;
75552;SDS011;64136;53.118;17.996;2022-10-16T07:35:55;9.30;;;6.90;;
75552;SDS011;64136;53.118;17.996;2022-10-16T07:38:21;7.90;;;6.30;;
75552;SDS011;64136;53.118;17.996;2022-10-16T07:43:21;7.10;;;5.50;;
75552;SDS011;64136;53.118;17.996;2022-10-16T07:45:48;7.70;;;5.50;;
75552;SDS011;64136;53.118;17.996;2022-10-16T07:48:17;7.40;;;5.30;;
75552;SDS011;64136;53.118;17.996;2022-10-16T07:50:44;7.60;;;5.50;;
75552;SDS011;64136;53.118;17.996;2022-10-16T07:53:11;7.90;;;5.80;;
75552;SDS011;64136;53.118;17.996;2022-10-16T07:55:38;5.90;;;5.00;;
75552;SDS011;64136;53.118;17.996;2022-10-16T07:58:05;7.00;;;6.20;;
75552;SDS011;64136;53.118;17.996;2022-10-16T08:00:31;6.20;;;5.40;;
75552;SDS011;64136;53.118;17.996;2022-10-16T08:02:58;6.40;;;5.60;;
75552;SDS011;64136;53.118;17.996;2022-10-16T08:05:29;7.10;;;5.60;;
75552;SDS011;64136;53.118;17.996;2022-10-16T08:07:56;6.20;;;5.50;;
75552;SDS011;64136;53.118;17.996;2022-10-16T08:10:24;7.50;;;5.80;;
75552;SDS011;64136;53.118;17.996;2022-10-16T08:12:52;7.20;;;5.60;;
75552;SDS011;64136;53.118;17.996;2022-10-16T08:15:19;6.70;;;5.90;;
75552;SDS011;64136;53.118;17.996;2022-10-16T08:20:26;7.30;;;5.50;;
75552;SDS011;64136;53.118;17.996;2022-10-16T08:25:20;5.70;;;3.90;;
75552;SDS011;64136;53.118;17.996;2022-10-16T08:27:48;5.80;;;4.70;;
75552;SDS011;64136;53.118;17.996;2022-10-16T08:30:14;6.80;;;5.20;;
75552;SDS011;64136;53.118;17.996;2022-10-16T08:32:41;5.20;;;4.70;;
75552;SDS011;64136;53.118;17.996;2022-10-16T08:35:09;6.20;;;5.30;;
75552;SDS011;64136;53.118;17.996;2022-10-16T08:37:36;6.60;;;4.80;;
75552;SDS011;64136;53.118;17.996;2022-10-16T08:40:04;6.50;;;4.80;;
75552;SDS011;64136;53.118;17.996;2022-10-16T08:43:28;5.90;;;4.90;;
75552;SDS011;64136;53.118;17.996;2022-10-16T08:46:07;5.90;;;5.20;;
75552;SDS011;64136;53.118;17.996;2022-10-16T08:48:43;5.60;;;5.10;;
75552;SDS011;64136;53.118;17.996;2022-10-16T08:51:16;6.30;;;5.00;;
75552;SDS011;64136;53.118;17.996;2022-10-16T08:53:55;5.70;;;4.20;;
75552;SDS011;64136;53.118;17.996;2022-10-16T08:56:23;4.90;;;4.30;;
75552;SDS011;64136;53.118;17.996;2022-10-16T08:58:50;6.00;;;5.40;;
75552;SDS011;64136;53.118;17.996;2022-10-16T09:01:19;5.20;;;4.70;;
75552;SDS011;64136;53.118;17.996;2022-10-16T09:03:55;5.10;;;4.00;;
75552;SDS011;64136;53.118;17.996;2022-10-16T09:09:17;5.70;;;4.60;;
75552;SDS011;64136;53.118;17.996;2022-10-16T09:14:45;4.40;;;4.00;;
75552;SDS011;64136;53.118;17.996;2022-10-16T09:22:53;6.20;;;4.70;;
75552;SDS011;64136;53.118;17.996;2022-10-16T09:25:24;4.10;;;3.70;;
75552;SDS011;64136;53.118;17.996;2022-10-16T09:27:52;4.60;;;3.90;;
75552;SDS011;64136;53.118;17.996;2022-10-16T09:30:20;5.00;;;4.50;;
75552;SDS011;64136;53.118;17.996;2022-10-16T09:32:48;5.30;;;4.30;;
75552;SDS011;64136;53.118;17.996;2022-10-16T09:35:20;5.20;;;3.80;;
75552;SDS011;64136;53.118;17.996;2022-10-16T09:37:50;4.40;;;4.00;;
75552;SDS011;64136;53.118;17.996;2022-10-16T09:40:25;5.60;;;4.40;;
75552;SDS011;64136;53.118;17.996;2022-10-16T09:43:12;5.60;;;4.10;;
75552;SDS011;64136;53.118;17.996;2022-10-16T09:45:40;5.70;;;4.40;;
75552;SDS011;64136;53.118;17.996;2022-10-16T09:48:10;4.60;;;3.50;;
75552;SDS011;64136;53.118;17.996;2022-10-16T09:50:38;4.90;;;4.30;;
75552;SDS011;64136;53.118;17.996;2022-10-16T09:55:32;5.40;;;4.60;;
75552;SDS011;64136;53.118;17.996;2022-10-16T09:57:59;4.10;;;3.30;;
75552;SDS011;64136;53.118;17.996;2022-10-16T10:00:25;5.50;;;3.90;;
75552;SDS011;64136;53.118;17.996;2022-10-16T10:02:53;5.60;;;4.00;;
75552;SDS011;64136;53.118;17.996;2022-10-16T10:05:21;4.20;;;3.50;;
75552;SDS011;64136;53.118;17.996;2022-10-16T10:08:00;4.10;;;3.30;;
75552;SDS011;64136;53.118;17.996;2022-10-16T10:10:32;3.80;;;3.40;;
75552;SDS011;64136;53.118;17.996;2022-10-16T10:13:19;3.90;;;3.50;;
75552;SDS011;64136;53.118;17.996;2022-10-16T10:15:46;5.10;;;3.70;;
75552;SDS011;64136;53.118;17.996;2022-10-16T10:18:17;3.10;;;2.80;;
75552;SDS011;64136;53.118;17.996;2022-10-16T10:20:46;3.40;;;3.10;;
75552;SDS011;64136;53.118;17.996;2022-10-16T10:23:24;3.50;;;3.20;;
75552;SDS011;64136;53.118;17.996;2022-10-16T10:26:04;3.60;;;3.20;;
75552;SDS011;64136;53.118;17.996;2022-10-16T10:31:49;2.90;;;2.60;;
75552;SDS011;64136;53.118;17.996;2022-10-16T10:39:43;4.40;;;2.80;;
75552;SDS011;64136;53.118;17.996;2022-10-16T10:45:11;3.80;;;2.90;;
75552;SDS011;64136;53.118;17.996;2022-10-16T10:50:22;3.20;;;2.80;;
75552;SDS011;64136;53.118;17.996;2022-10-16T10:53:22;4.00;;;3.00;;
75552;SDS011;64136;53.118;17.996;2022-10-16T11:01:30;3.90;;;3.50;;
75552;SDS011;64136;53.118;17.996;2022-10-16T11:07:07;4.10;;;3.40;;
75552;SDS011;64136;53.118;17.996;2022-10-16T11:09:33;3.60;;;3.30;;
75552;SDS011;64136;53.118;17.996;2022-10-16T11:12:19;3.40;;;3.10;;
75552;SDS011;64136;53.118;17.996;2022-10-16T11:14:50;3.30;;;3.00;;
75552;SDS011;64136;53.118;17.996;2022-10-16T11:17:38;3.70;;;3.00;;
75552;SDS011;64136;53.118;17.996;2022-10-16T11:20:26;3.40;;;3.10;;
75552;SDS011;64136;53.118;17.996;2022-10-16T11:22:56;3.40;;;2.90;;
75552;SDS011;64136;53.118;17.996;2022-10-16T11:25:27;4.50;;;2.70;;
75552;SDS011;64136;53.118;17.996;2022-10-16T11:33:15;2.50;;;2.20;;
75552;SDS011;64136;53.118;17.996;2022-10-16T11:39:00;2.90;;;2.60;;
75552;SDS011;64136;53.118;17.996;2022-10-16T11:46:38;3.10;;;2.80;;
75552;SDS011;64136;53.118;17.996;2022-10-16T11:49:14;3.80;;;3.30;;
75552;SDS011;64136;53.118;17.996;2022-10-16T11:51:57;3.30;;;3.00;;
75552;SDS011;64136;53.118;17.996;2022-10-16T11:54:52;3.30;;;2.90;;
75552;SDS011;64136;53.118;17.996;2022-10-16T12:00:01;4.00;;;3.60;;
75552;SDS011;64136;53.118;17.996;2022-10-16T12:08:11;3.50;;;3.20;;
75552;SDS011;64136;53.118;17.996;2022-10-16T12:10:40;2.80;;;2.60;;
75552;SDS011;64136;53.118;17.996;2022-10-16T12:13:28;3.70;;;3.20;;
75552;SDS011;64136;53.118;17.996;2022-10-16T12:16:19;5.10;;;3.50;;
75552;SDS011;64136;53.118;17.996;2022-10-16T12:18:48;4.50;;;3.50;;
75552;SDS011;64136;53.118;17.996;2022-10-16T12:21:15;4.20;;;3.70;;
75552;SDS011;64136;53.118;17.996;2022-10-16T12:23:51;4.30;;;3.30;;
75552;SDS011;64136;53.118;17.996;2022-10-16T12:26:30;4.00;;;3.60;;
75552;SDS011;64136;53.118;17.996;2022-10-16T12:29:11;4.50;;;3.80;;
75552;SDS011;64136;53.118;17.996;2022-10-16T12:31:46;4.10;;;3.60;;
75552;SDS011;64136;53.118;17.996;2022-10-16T12:34:18;3.80;;;3.50;;
75552;SDS011;64136;53.118;17.996;2022-10-16T12:36:49;5.60;;;3.40;;
75552;SDS011;64136;53.118;17.996;2022-10-16T12:39:20;3.70;;;3.40;;
75552;SDS011;64136;53.118;17.996;2022-10-16T12:41:59;4.20;;;2.90;;
75552;SDS011;64136;53.118;17.996;2022-10-16T12:44:31;3.60;;;3.20;;
75552;SDS011;64136;53.118;17.996;2022-10-16T12:46:59;3.10;;;2.60;;
75552;SDS011;64136;53.118;17.996;2022-10-16T12:49:30;3.30;;;3.10;;
75552;SDS011;64136;53.118;17.996;2022-10-16T12:51:59;4.00;;;3.30;;
75552;SDS011;64136;53.118;17.996;2022-10-16T12:54:30;3.90;;;3.20;;
75552;SDS011;64136;53.118;17.996;2022-10-16T12:57:03;4.40;;;3.30;;
75552;SDS011;64136;53.118;17.996;2022-10-16T13:00:03;3.70;;;3.10;;
75552;SDS011;64136;53.118;17.996;2022-10-16T13:02:39;3.40;;;2.90;;
75552;SDS011;64136;53.118;17.996;2022-10-16T13:07:40;4.10;;;3.10;;
75552;SDS011;64136;53.118;17.996;2022-10-16T13:13:18;4.80;;;2.60;;
75552;SDS011;64136;53.118;17.996;2022-10-16T13:15:59;3.20;;;2.80;;
75552;SDS011;64136;53.118;17.996;2022-10-16T13:24:12;3.90;;;3.00;;
75552;SDS011;64136;53.118;17.996;2022-10-16T13:27:21;3.20;;;2.90;;
75552;SDS011;64136;53.118;17.996;2022-10-16T13:29:53;5.40;;;3.20;;
75552;SDS011;64136;53.118;17.996;2022-10-16T13:32:25;3.70;;;2.90;;
75552;SDS011;64136;53.118;17.996;2022-10-16T13:37:21;3.40;;;2.70;;
75552;SDS011;64136;53.118;17.996;2022-10-16T13:39:51;3.30;;;3.00;;
75552;SDS011;64136;53.118;17.996;2022-10-16T13:42:23;5.60;;;3.00;;
75552;SDS011;64136;53.118;17.996;2022-10-16T13:44:53;3.30;;;3.00;;
75552;SDS011;64136;53.118;17.996;2022-10-16T13:47:21;4.00;;;3.00;;
75552;SDS011;64136;53.118;17.996;2022-10-16T13:50:03;3.30;;;3.00;;
75552;SDS011;64136;53.118;17.996;2022-10-16T13:52:32;4.20;;;3.00;;
75552;SDS011;64136;53.118;17.996;2022-10-16T13:54:59;3.40;;;3.10;;
75552;SDS011;64136;53.118;17.996;2022-10-16T13:57:25;5.20;;;3.00;;
75552;SDS011;64136;53.118;17.996;2022-10-16T13:59:52;3.90;;;3.30;;
75552;SDS011;64136;53.118;17.996;2022-10-16T14:07:29;3.50;;;3.00;;
75552;SDS011;64136;53.118;17.996;2022-10-16T14:10:05;3.70;;;3.30;;
75552;SDS011;64136;53.118;17.996;2022-10-16T14:12:34;5.40;;;3.20;;
75552;SDS011;64136;53.118;17.996;2022-10-16T14:15:00;3.60;;;3.00;;
75552;SDS011;64136;53.118;17.996;2022-10-16T14:17:28;3.20;;;2.90;;
75552;SDS011;64136;53.118;17.996;2022-10-16T14:19:57;3.90;;;3.50;;
75552;SDS011;64136;53.118;17.996;2022-10-16T14:24:57;3.60;;;3.30;;
75552;SDS011;64136;53.118;17.996;2022-10-16T14:27:28;4.20;;;3.30;;
75552;SDS011;64136;53.118;17.996;2022-10-16T14:32:35;3.60;;;3.10;;
75552;SDS011;64136;53.118;17.996;2022-10-16T14:35:02;4.10;;;3.60;;
75552;SDS011;64136;53.118;17.996;2022-10-16T14:37:28;4.00;;;3.60;;
75552;SDS011;64136;53.118;17.996;2022-10-16T14:39:56;4.40;;;3.10;;
75552;SDS011;64136;53.118;17.996;2022-10-16T14:42:23;3.60;;;3.10;;
75552;SDS011;64136;53.118;17.996;2022-10-16T14:44:51;3.50;;;3.20;;
75552;SDS011;64136;53.118;17.996;2022-10-16T14:47:22;5.40;;;3.20;;
75552;SDS011;64136;53.118;17.996;2022-10-16T14:49:52;3.30;;;3.00;;
75552;SDS011;64136;53.118;17.996;2022-10-16T14:52:21;3.80;;;3.50;;
75552;SDS011;64136;53.118;17.996;2022-10-16T14:54:48;4.70;;;3.50;;
75552;SDS011;64136;53.118;17.996;2022-10-16T14:57:16;3.70;;;3.40;;
75552;SDS011;64136;53.118;17.996;2022-10-16T14:59:44;6.30;;;3.90;;
75552;SDS011;64136;53.118;17.996;2022-10-16T15:02:16;4.70;;;3.20;;
75552;SDS011;64136;53.118;17.996;2022-10-16T15:04:47;3.90;;;3.40;;
75552;SDS011;64136;53.118;17.996;2022-10-16T15:07:14;5.80;;;3.80;;
75552;SDS011;64136;53.118;17.996;2022-10-16T15:09:41;4.10;;;3.50;;
75552;SDS011;64136;53.118;17.996;2022-10-16T15:12:07;4.00;;;3.50;;
75552;SDS011;64136;53.118;17.996;2022-10-16T15:14:34;3.40;;;3.00;;
75552;SDS011;64136;53.118;17.996;2022-10-16T15:17:00;4.00;;;3.20;;
75552;SDS011;64136;53.118;17.996;2022-10-16T15:19:27;3.70;;;3.10;;
75552;SDS011;64136;53.118;17.996;2022-10-16T15:21:53;4.80;;;3.20;;
75552;SDS011;64136;53.118;17.996;2022-10-16T15:24:20;3.50;;;3.20;;
75552;SDS011;64136;53.118;17.996;2022-10-16T15:26:47;4.20;;;3.80;;
75552;SDS011;64136;53.118;17.996;2022-10-16T15:29:15;4.40;;;3.60;;
75552;SDS011;64136;53.118;17.996;2022-10-16T15:31:41;4.50;;;3.90;;
75552;SDS011;64136;53.118;17.996;2022-10-16T15:34:14;5.60;;;3.80;;
75552;SDS011;64136;53.118;17.996;2022-10-16T15:36:41;4.70;;;3.40;;
75552;SDS011;64136;53.118;17.996;2022-10-16T15:39:14;4.60;;;3.10;;
75552;SDS011;64136;53.118;17.996;2022-10-16T15:41:42;5.30;;;3.50;;
75552;SDS011;64136;53.118;17.996;2022-10-16T15:44:09;4.40;;;2.90;;
75552;SDS011;64136;53.118;17.996;2022-10-16T15:46:36;3.60;;;3.00;;
75552;SDS011;64136;53.118;17.996;2022-10-16T15:49:03;5.40;;;3.10;;
75552;SDS011;64136;53.118;17.996;2022-10-16T15:51:30;5.60;;;3.20;;
75552;SDS011;64136;53.118;17.996;2022-10-16T15:53:59;5.20;;;3.30;;
75552;SDS011;64136;53.118;17.996;2022-10-16T15:56:27;3.80;;;3.40;;
75552;SDS011;64136;53.118;17.996;2022-10-16T15:58:54;6.10;;;3.60;;
75552;SDS011;64136;53.118;17.996;2022-10-16T16:01:21;3.40;;;3.10;;
75552;SDS011;64136;53.118;17.996;2022-10-16T16:03:48;4.20;;;3.00;;
75552;SDS011;64136;53.118;17.996;2022-10-16T16:06:19;10.30;;;4.90;;
75552;SDS011;64136;53.118;17.996;2022-10-16T16:08:45;7.10;;;3.20;;
75552;SDS011;64136;53.118;17.996;2022-10-16T16:11:13;7.70;;;5.60;;
75552;SDS011;64136;53.118;17.996;2022-10-16T16:13:41;7.50;;;4.70;;
75552;SDS011;64136;53.118;17.996;2022-10-16T16:16:08;11.50;;;10.30;;
75552;SDS011;64136;53.118;17.996;2022-10-16T16:18:36;11.20;;;7.70;;
75552;SDS011;64136;53.118;17.996;2022-10-16T16:21:03;8.40;;;5.80;;
75552;SDS011;64136;53.118;17.996;2022-10-16T16:23:30;6.60;;;4.30;;
75552;SDS011;64136;53.118;17.996;2022-10-16T16:26:02;9.80;;;7.60;;
75552;SDS011;64136;53.118;17.996;2022-10-16T16:28:39;15.90;;;11.40;;